Time;durP1;ratioP1;P1;durP2;ratioP2;P2;SDS_P1;SDS_P2;PMS_P1;PMS_P2;Temp;Humidity;BMP_temperature;BMP_pressure;BME280_temperature;BME280_humidity;BME280_pressure;Samples;Min_cycle;Max_cycle;Signal;HPM_P1;HPM_P2
2022/06/07 00:00:45;;;;;;;0.10;0.10;;;;;;;21.23;45.69;100998.22;5130160;27;20070;-33
2022/06/07 00:03:12;;;;;;;0.10;0.10;;;;;;;21.23;45.75;100995.44;5133572;27;20049;-33
2022/06/07 00:05:40;;;;;;;0.10;0.10;;;;;;;21.23;45.74;100997.41;5132507;27;20096;-32
2022/06/07 00:08:06;;;;;;;0.10;0.10;;;;;;;21.22;45.82;100999.34;5129604;27;20188;-32
2022/06/07 00:10:33;;;;;;;0.10;0.10;;;;;;;21.22;45.75;100992.97;5132329;27;20074;-32
2022/06/07 00:12:59;;;;;;;0.10;0.10;;;;;;;21.22;45.82;100996.56;5130354;27;20070;-33
2022/06/07 00:15:24;;;;;;;0.10;0.10;;;;;;;21.23;45.55;100991.84;5130840;27;20631;-33
2022/06/07 00:17:50;;;;;;;0.10;0.10;;;;;;;21.22;45.56;100995.75;5130989;27;20417;-32
2022/06/07 00:20:16;;;;;;;0.10;0.10;;;;;;;21.23;45.75;100989.09;5130300;27;20096;-33
2022/06/07 00:22:42;;;;;;;0.10;0.10;;;;;;;21.23;45.64;100986.31;5131343;27;20434;-34
2022/06/07 00:25:09;;;;;;;0.10;0.10;;;;;;;21.23;45.88;100992.69;5129116;27;20082;-33
2022/06/07 00:27:35;;;;;;;0.10;0.10;;;;;;;21.22;45.60;100984.66;5129950;27;20079;-33
2022/06/07 00:30:01;;;;;;;0.10;0.10;;;;;;;21.22;45.65;100985.50;5128644;27;20051;-33
2022/06/07 00:32:26;;;;;;;0.10;0.10;;;;;;;21.22;45.75;100981.91;5129781;27;20043;-33
2022/06/07 00:34:52;;;;;;;0.10;0.10;;;;;;;21.22;45.92;100979.13;5130408;27;20134;-32
2022/06/07 00:37:18;;;;;;;0.10;0.10;;;;;;;21.22;45.64;100979.94;5130595;27;20035;-33
2022/06/07 00:39:43;;;;;;;0.10;0.10;;;;;;;21.23;45.92;100989.09;5130866;27;20047;-34
2022/06/07 00:42:10;;;;;;;0.10;0.10;;;;;;;21.23;45.71;100994.63;5131355;27;20043;-33
2022/06/07 00:44:40;;;;;;;0.10;0.10;;;;;;;21.23;45.79;100980.78;5129505;27;20138;-33
2022/06/07 00:47:11;;;;;;;0.10;0.10;;;;;;;21.21;45.83;100978.31;5115909;27;20402;-33
2022/06/07 00:49:46;;;;;;;0.10;0.10;;;;;;;21.21;45.91;100972.78;5093095;27;20173;-32
2022/06/07 00:52:12;;;;;;;0.10;0.10;;;;;;;21.21;45.86;100972.78;5111943;27;20077;-32
2022/06/07 00:54:38;;;;;;;0.10;0.10;;;;;;;21.20;45.81;100975.81;5132024;27;20043;-33
2022/06/07 00:57:04;;;;;;;0.10;0.10;;;;;;;21.21;45.77;100963.63;5132056;27;20074;-33
2022/06/07 00:59:30;;;;;;;0.10;0.10;;;;;;;21.21;45.85;100963.63;5111349;27;20058;-33
2022/06/07 01:01:56;;;;;;;0.10;0.10;;;;;;;21.21;45.81;100961.69;5133099;27;20043;-34
2022/06/07 01:04:23;;;;;;;0.10;0.10;;;;;;;21.22;45.82;100962.50;5113299;27;20055;-34
2022/06/07 01:12:21;;;;;;;0.10;0.10;;;;;;;21.19;45.95;100958.38;5118275;27;20070;-34
2022/06/07 01:14:47;;;;;;;0.10;0.10;;;;;;;21.21;45.80;100960.88;5133452;27;20078;-34
2022/06/07 01:17:13;;;;;;;0.10;0.10;;;;;;;21.21;45.83;100963.63;5133755;27;20039;-34
2022/06/07 01:19:39;;;;;;;0.10;0.10;;;;;;;21.20;45.64;100957.28;5132214;27;20107;-34
2022/06/07 01:22:04;;;;;;;0.10;0.10;;;;;;;21.21;45.65;100958.09;5133051;27;20047;-34
2022/06/07 01:24:30;;;;;;;0.10;0.10;;;;;;;21.20;45.67;100956.44;5132430;27;20142;-34
2022/06/07 01:26:56;;;;;;;0.10;0.10;;;;;;;21.21;45.75;100955.34;5139518;27;20063;-34
2022/06/07 01:29:22;;;;;;;0.10;0.10;;;;;;;21.20;45.89;100951.75;5132446;27;20065;-34
2022/06/07 01:31:48;;;;;;;0.10;0.10;;;;;;;21.21;45.79;100941.47;5134989;27;20050;-33
2022/06/07 01:34:14;;;;;;;0.10;0.10;;;;;;;21.19;45.83;100950.06;5133133;27;20584;-34
2022/06/07 01:36:40;;;;;;;0.10;0.10;;;;;;;21.19;45.85;100947.28;5133977;27;20134;-34
2022/06/07 01:41:54;;;;;;;0.10;0.10;;;;;;;21.20;45.93;100942.59;5117242;28;20047;-34
2022/06/07 01:47:02;;;;;;;0.10;0.10;;;;;;;21.19;45.89;100941.75;5165561;27;20116;-33
2022/06/07 01:49:28;;;;;;;0.10;0.10;;;;;;;21.19;45.73;100943.72;5142792;27;20125;-33
2022/06/07 01:51:54;;;;;;;0.10;0.10;;;;;;;21.19;45.83;100943.72;5163292;27;20109;-33
2022/06/07 01:54:21;;;;;;;0.10;0.10;;;;;;;21.20;45.77;100943.44;5167191;27;20541;-33
2022/06/07 01:56:48;;;;;;;0.10;0.10;;;;;;;21.19;45.91;100939.00;5143897;27;20046;-34
2022/06/07 01:59:13;;;;;;;0.10;0.10;;;;;;;21.19;45.74;100938.16;5161122;27;20552;-34
2022/06/07 02:01:39;;;;;;;0.10;0.10;;;;;;;21.19;45.79;100947.28;5165872;27;20125;-33
2022/06/07 02:04:05;;;;;;;0.10;0.10;;;;;;;21.19;45.79;100935.41;5162477;27;20046;-33
2022/06/07 02:06:31;;;;;;;0.10;0.10;;;;;;;21.18;45.81;100937.34;5162826;27;20050;-34
2022/06/07 02:08:56;;;;;;;0.10;0.10;;;;;;;21.17;45.89;100932.94;5165558;27;20038;-33
2022/06/07 02:11:24;;;;;;;0.10;0.10;;;;;;;21.19;45.82;100935.41;5167022;27;20397;-33
2022/06/07 02:13:52;;;;;;;0.10;0.10;;;;;;;21.19;45.83;100929.84;5164767;27;20085;-33
2022/06/07 02:16:19;;;;;;;0.10;0.10;;;;;;;21.18;45.88;100925.44;5145651;27;20108;-34
2022/06/07 02:18:46;;;;;;;0.10;0.10;;;;;;;21.18;45.71;100925.44;5143550;27;20374;-33
2022/06/07 02:21:12;;;;;;;0.10;0.10;;;;;;;21.19;45.99;100919.59;5160525;27;20082;-34
2022/06/07 02:23:38;;;;;;;0.10;0.10;;;;;;;21.19;45.71;100921.53;5165133;27;20066;-33
2022/06/07 02:26:06;;;;;;;0.10;0.10;;;;;;;21.18;45.82;100923.50;5163243;27;20073;-34
2022/06/07 02:28:35;;;;;;;0.10;0.10;;;;;;;21.18;45.86;100917.97;5128122;27;20042;-34
2022/06/07 02:31:03;;;;;;;0.10;0.10;;;;;;;21.18;45.98;100922.69;5144494;27;20776;-33
2022/06/07 02:33:28;;;;;;;0.10;0.10;;;;;;;21.18;45.71;100923.50;5163295;27;20130;-34
2022/06/07 02:35:54;;;;;;;0.10;0.10;;;;;;;21.17;45.75;100915.50;5163198;27;20078;-33
2022/06/07 02:38:21;;;;;;;0.10;0.10;;;;;;;21.18;45.86;100922.69;5165788;27;20129;-33
2022/06/07 02:40:48;;;;;;;0.10;0.10;;;;;;;21.18;45.80;100917.13;5163462;27;20070;-34
2022/06/07 02:43:14;;;;;;;0.10;0.10;;;;;;;21.18;45.85;100923.50;5167608;27;20084;-33
2022/06/07 02:45:39;;;;;;;0.10;0.10;;;;;;;21.18;45.87;100917.13;5158113;27;20035;-34
2022/06/07 02:48:06;;;;;;;0.10;0.10;;;;;;;21.19;45.83;100924.31;5158039;27;20043;-34
2022/06/07 02:50:31;;;;;;;0.10;0.10;;;;;;;21.17;45.91;100919.09;5164640;27;20074;-34
2022/06/07 02:52:57;;;;;;;0.10;0.10;;;;;;;21.19;45.98;100921.53;5164105;27;20133;-33
2022/06/07 02:55:23;;;;;;;0.10;0.10;;;;;;;21.16;45.88;100920.22;5165149;27;20380;-34
2022/06/07 02:57:48;;;;;;;0.10;0.10;;;;;;;21.17;45.80;100921.84;5151718;27;20034;-34
2022/06/07 03:00:15;;;;;;;0.10;0.10;;;;;;;21.17;45.86;100930.16;5149549;27;20454;-34
2022/06/07 03:02:41;;;;;;;0.10;0.10;;;;;;;21.17;45.93;100923.81;5152709;27;20500;-34
2022/06/07 03:05:10;;;;;;;0.10;0.10;;;;;;;21.18;45.92;100925.44;5131604;27;20047;-34
2022/06/07 03:07:36;;;;;;;0.10;0.10;;;;;;;21.16;46.01;100920.22;5146268;27;20171;-33
2022/06/07 03:10:04;;;;;;;0.10;0.10;;;;;;;21.16;45.81;100928.53;5147866;27;20093;-34
2022/06/07 03:12:29;;;;;;;0.10;0.10;;;;;;;21.16;45.83;100924.94;5152542;27;20126;-34
2022/06/07 03:14:55;;;;;;;0.10;0.10;;;;;;;21.17;46.02;100926.56;5151845;27;20042;-34
2022/06/07 03:17:21;;;;;;;0.10;0.10;;;;;;;21.16;45.97;100925.75;5151283;27;20039;-35
2022/06/07 03:19:46;;;;;;;0.10;0.10;;;;;;;21.17;45.89;100932.09;5149418;27;20045;-33
2022/06/07 03:22:14;;;;;;;0.10;0.10;;;;;;;21.16;45.88;100931.28;5150069;27;20057;-33
2022/06/07 03:24:39;;;;;;;0.10;0.10;;;;;;;21.16;46.16;100931.28;5150241;27;20172;-34
2022/06/07 03:27:11;;;;;;;0.10;0.10;;;;;;;21.15;46.00;100924.06;5146926;27;20092;-34
2022/06/07 03:29:37;;;;;;;0.10;0.10;;;;;;;21.16;45.86;100924.94;5149189;27;20070;-32
2022/06/07 03:32:04;;;;;;;0.10;0.10;;;;;;;21.16;45.91;100936.81;5149648;27;20054;-32
2022/06/07 03:34:30;;;;;;;0.10;0.10;;;;;;;21.16;45.94;100936.81;5150499;27;20407;-34
2022/06/07 03:36:56;;;;;;;0.10;0.10;;;;;;;21.17;45.88;100929.34;5150434;27;20050;-33
2022/06/07 03:39:22;;;;;;;0.10;0.10;;;;;;;21.17;45.71;100932.09;5149710;27;20466;-32
2022/06/07 03:41:47;;;;;;;0.10;0.10;;;;;;;21.16;46.02;100936.00;5141087;27;20097;-32
2022/06/07 03:44:13;;;;;;;0.10;0.10;;;;;;;21.16;45.97;100945.13;5129156;28;20062;-33
2022/06/07 03:46:41;;;;;;;0.10;0.10;;;;;;;21.17;45.87;100945.97;5131877;27;20047;-32
2022/06/07 03:49:07;;;;;;;0.10;0.10;;;;;;;21.15;45.72;100946.22;5127149;28;20147;-32
2022/06/07 03:51:33;;;;;;;0.10;0.10;;;;;;;21.16;45.88;100944.31;5129562;28;20427;-32
2022/06/07 03:53:58;;;;;;;0.10;0.10;;;;;;;21.17;45.87;100951.50;5129517;28;20047;-32
2022/06/07 03:56:24;;;;;;;0.10;0.10;;;;;;;21.15;45.73;100942.63;5131370;28;20043;-32
2022/06/07 03:58:51;;;;;;;0.10;0.10;;;;;;;21.16;45.86;100949.84;5129931;28;20064;-32
2022/06/07 04:01:18;;;;;;;0.10;0.10;;;;;;;21.15;45.81;100940.69;5132362;28;20039;-34
2022/06/07 04:03:46;;;;;;;0.10;0.10;;;;;;;21.16;45.77;100949.84;5126582;28;20052;-33
2022/06/07 04:06:19;;;;;;;0.10;0.10;;;;;;;21.15;45.80;100940.69;5127444;28;20054;-33
2022/06/07 04:08:45;;;;;;;0.10;0.10;;;;;;;21.16;45.86;100944.31;5123883;28;20086;-33
2022/06/07 04:11:12;;;;;;;0.10;0.10;;;;;;;21.16;45.91;100944.31;5129884;27;20039;-33
2022/06/07 04:13:38;;;;;;;0.10;0.10;;;;;;;21.16;45.83;100947.09;5129169;28;20051;-32
2022/06/07 04:16:06;;;;;;;0.10;0.10;;;;;;;21.15;45.90;100945.41;5131728;28;20053;-32
2022/06/07 04:18:31;;;;;;;;;;;;;;;21.15;45.79;100943.47;5127926;28;20043;-32
2022/06/07 04:20:58;;;;;;;0.10;0.10;;;;;;;21.14;45.89;100950.13;5127214;28;19927;-33
2022/06/07 04:23:24;;;;;;;0.10;0.10;;;;;;;21.14;45.74;100950.13;5129487;28;20051;-33
2022/06/07 04:25:50;;;;;;;0.10;0.10;;;;;;;21.15;45.89;100942.63;5127689;28;20054;-32
2022/06/07 04:28:16;;;;;;;0.10;0.10;;;;;;;21.14;46.04;100943.75;5128188;28;20045;-32
2022/06/07 04:30:44;;;;;;;0.10;0.10;;;;;;;21.15;45.77;100950.94;5128037;28;20043;-33
2022/06/07 04:33:10;;;;;;;0.10;0.10;;;;;;;21.14;45.87;100939.06;5106252;28;20467;-32
2022/06/07 04:35:36;;;;;;;0.10;0.10;;;;;;;21.15;46.05;100942.63;5127014;28;20126;-32
2022/06/07 04:38:02;;;;;;;0.10;0.10;;;;;;;21.15;45.76;100942.63;5127856;28;20051;-33
2022/06/07 04:40:27;;;;;;;0.10;0.10;;;;;;;21.15;45.79;100937.94;5127854;28;20039;-32
2022/06/07 04:42:53;;;;;;;0.10;0.10;;;;;;;21.15;45.80;100934.34;5124944;28;20422;-32
2022/06/07 04:45:19;;;;;;;0.10;0.10;;;;;;;21.15;45.72;100945.41;5122600;28;20047;-33
2022/06/07 04:47:46;;;;;;;0.10;0.10;;;;;;;21.14;45.83;100944.59;5125355;28;20043;-32
2022/06/07 04:50:15;;;;;;;0.10;0.10;;;;;;;21.13;45.79;100945.72;5091945;28;20075;-32
2022/06/07 04:52:43;;;;;;;0.10;0.10;;;;;;;21.13;46.06;100948.47;5123794;28;20066;-32
2022/06/07 04:55:09;;;;;;;0.20;0.20;;;;;;;21.14;45.87;100950.13;5127036;28;20550;-32
2022/06/07 04:57:35;;;;;;;0.10;0.10;;;;;;;21.14;45.98;100952.91;5128328;28;20053;-32
2022/06/07 05:00:00;;;;;;;0.10;0.10;;;;;;;21.13;46.03;100953.19;5128797;28;20039;-32
2022/06/07 05:02:26;;;;;;;0.10;0.10;;;;;;;21.13;45.98;100953.19;5126273;28;20047;-32
2022/06/07 05:04:52;;;;;;;0.10;0.10;;;;;;;21.14;45.89;100961.22;5127889;28;20406;-32
2022/06/07 05:07:18;;;;;;;0.10;0.10;;;;;;;21.13;46.27;100956.78;5123710;28;20470;-32
2022/06/07 05:09:43;;;;;;;0.10;0.10;;;;;;;21.13;46.03;100956.78;5128096;27;20047;-32
2022/06/07 05:12:09;;;;;;;0.10;0.10;;;;;;;21.15;45.98;100962.03;5126857;28;20058;-32
2022/06/07 05:14:35;;;;;;;0.10;0.10;;;;;;;21.14;45.92;100952.91;5122756;28;20042;-32
2022/06/07 05:17:02;;;;;;;0.10;0.10;;;;;;;21.12;45.99;100955.16;5125642;28;20081;-32
2022/06/07 05:19:33;;;;;;;0.10;0.10;;;;;;;21.12;45.87;100952.38;5104767;27;20078;-33
2022/06/07 05:22:00;;;;;;;0.10;0.10;;;;;;;21.13;45.95;100955.97;5122862;28;20070;-32
2022/06/07 05:24:26;;;;;;;0.10;0.10;;;;;;;21.14;45.92;100957.63;5125532;28;20091;-32
2022/06/07 05:26:55;;;;;;;0.10;0.10;;;;;;;21.13;46.02;100956.78;5127917;28;20151;-32
2022/06/07 05:29:27;;;;;;;0.10;0.10;;;;;;;21.13;45.83;100958.75;5121325;28;20166;-32
2022/06/07 05:31:53;;;;;;;0.10;0.10;;;;;;;21.14;45.78;100960.38;5121135;28;20134;-32
2022/06/07 05:34:19;;;;;;;0.10;0.10;;;;;;;21.11;46.31;100961.78;5120070;28;20064;-41
2022/06/07 05:36:44;;;;;;;0.13;0.13;;;;;;;21.16;46.11;100970.06;5119930;27;20051;-41
2022/06/07 05:39:27;;;;;;;0.10;0.10;;;;;;;21.17;46.27;100971.69;5118681;28;20050;-41
2022/06/07 05:41:53;;;;;;;0.10;0.10;;;;;;;21.16;46.16;100964.53;5121175;27;20075;-42
2022/06/07 05:44:20;;;;;;;0.10;0.10;;;;;;;21.18;46.03;100973.34;5101127;28;20039;-42
2022/06/07 05:46:46;;;;;;;0.10;0.10;;;;;;;21.18;46.18;100972.53;5126404;28;20625;-42
2022/06/07 05:49:12;;;;;;;0.10;0.10;;;;;;;21.18;46.04;100969.75;5121950;28;20125;-42
2022/06/07 05:51:38;;;;;;;0.10;0.10;;;;;;;21.17;46.13;100980.00;5124729;28;20117;-42
2022/06/07 05:54:05;;;;;;;0.10;0.10;;;;;;;21.19;46.09;100968.63;5122255;28;20078;-42
2022/06/07 05:56:31;;;;;;;0.10;0.10;;;;;;;21.19;46.10;100971.41;5124918;28;20089;-42
2022/06/07 05:58:57;;;;;;;0.10;0.10;;;;;;;21.20;45.97;100965.59;5125509;28;20045;-42
2022/06/07 06:01:23;;;;;;;0.10;0.10;;;;;;;21.22;46.02;100973.59;5105309;28;20039;-42
2022/06/07 06:03:48;;;;;;;0.10;0.10;;;;;;;21.23;45.86;100973.28;5117478;28;20533;-42
2022/06/07 06:06:16;;;;;;;0.10;0.10;;;;;;;21.22;45.97;100960.56;5120231;28;20051;-42
2022/06/07 06:11:28;;;;;;;0.10;0.10;;;;;;;20.89;46.25;100970.59;5108491;28;20134;-47
2022/06/07 06:13:55;;;;;;;0.10;0.10;;;;;;;20.66;46.91;100974.94;5123417;28;20112;-40
2022/06/07 06:16:21;;;;;;;0.10;0.10;;;;;;;20.82;46.51;100969.28;5123915;28;20076;-46
2022/06/07 06:18:49;;;;;;;0.10;0.10;;;;;;;21.10;46.55;100973.97;5115484;28;20047;-43
2022/06/07 06:21:16;;;;;;;0.10;0.10;;;;;;;21.24;46.15;100965.81;5123115;28;20489;-44
2022/06/07 06:23:41;;;;;;;0.13;0.13;;;;;;;21.30;46.02;100965.47;5120584;28;20481;-42
2022/06/07 06:26:09;;;;;;;0.10;0.10;;;;;;;21.35;45.91;100974.88;5122373;28;20100;-44
2022/06/07 06:28:35;;;;;;;0.10;0.10;;;;;;;21.38;45.79;100977.06;5120128;28;20078;-44
2022/06/07 06:31:03;;;;;;;0.10;0.10;;;;;;;21.39;45.39;100962.91;5115967;27;20046;-45
2022/06/07 06:33:28;;;;;;;0.10;0.10;;;;;;;21.41;45.68;100965.38;5094675;28;20043;-42
2022/06/07 06:35:55;;;;;;;0.15;0.15;;;;;;;21.42;45.64;100967.03;5122906;28;20302;-44
2022/06/07 06:38:21;;;;;;;0.10;0.10;;;;;;;21.43;45.59;100966.72;5123390;27;20486;-44
2022/06/07 06:40:48;;;;;;;0.10;0.10;;;;;;;21.44;45.51;100965.59;5119367;28;20071;-42
2022/06/07 06:43:15;;;;;;;0.10;0.10;;;;;;;21.45;45.61;100970.03;5117983;27;20138;-45
2022/06/07 06:45:41;;;;;;;0.10;0.10;;;;;;;21.46;45.56;100968.06;5115633;27;20138;-44
2022/06/07 06:48:08;;;;;;;0.10;0.10;;;;;;;21.48;45.49;100968.63;5118580;27;20199;-43
2022/06/07 06:50:34;;;;;;;0.10;0.10;;;;;;;21.48;45.51;100971.38;5097215;28;20134;-44
2022/06/07 06:53:00;;;;;;;0.20;0.20;;;;;;;21.49;45.55;100973.03;5116354;27;20142;-44
2022/06/07 06:55:26;;;;;;;0.10;0.10;;;;;;;21.49;45.49;100979.41;5123247;28;20058;-45
2022/06/07 06:57:51;;;;;;;0.10;0.10;;;;;;;21.51;45.58;100970.81;5119507;27;20155;-44
2022/06/07 07:00:17;;;;;;;0.10;0.10;;;;;;;21.52;45.53;100966.91;5116473;27;20054;-46
2022/06/07 07:02:44;;;;;;;0.10;0.10;;;;;;;21.53;45.43;100974.91;5115434;28;20150;-44
2022/06/07 07:05:11;;;;;;;0.10;0.10;;;;;;;21.53;45.36;100972.16;5120116;28;20043;-44
2022/06/07 07:07:38;;;;;;;0.20;0.20;;;;;;;21.56;45.32;100975.47;5119675;28;20130;-45
2022/06/07 07:10:04;;;;;;;0.20;0.20;;;;;;;21.57;45.25;100972.38;5101096;28;20150;-42
2022/06/07 07:12:32;;;;;;;0.10;0.10;;;;;;;21.58;45.30;100968.47;5123584;28;20398;-44
2022/06/07 07:14:58;;;;;;;0.10;0.10;;;;;;;21.58;45.47;100971.25;5121076;28;20126;-44
2022/06/07 07:17:24;;;;;;;0.10;0.10;;;;;;;21.59;45.19;100964.63;5122424;28;20130;-41
2022/06/07 07:19:50;;;;;;;0.10;0.10;;;;;;;21.60;45.36;100976.53;5121255;27;20995;-44
2022/06/07 07:22:17;;;;;;;0.10;0.10;;;;;;;21.61;45.28;100969.84;5123614;28;20047;-45
2022/06/07 07:24:42;;;;;;;0.10;0.10;;;;;;;21.61;45.15;100961.53;5119236;28;20450;-44
2022/06/07 07:27:08;;;;;;;0.10;0.10;;;;;;;21.62;45.17;100968.72;5118339;27;20515;-43
2022/06/07 07:29:34;;;;;;;0.10;0.10;;;;;;;21.63;45.11;100970.38;5122493;28;20172;-42
2022/06/07 07:32:00;;;;;;;0.10;0.10;;;;;;;21.62;45.24;100969.53;5123485;27;20092;-42
2022/06/07 07:34:26;;;;;;;0.10;0.10;;;;;;;21.62;45.25;100966.78;5123806;28;20043;-44
2022/06/07 07:36:54;;;;;;;0.10;0.10;;;;;;;21.62;45.19;100965.94;5102040;27;20433;-44
2022/06/07 07:39:22;;;;;;;0.10;0.10;;;;;;;21.62;45.16;100968.72;5117931;27;20043;-42
2022/06/07 07:41:48;;;;;;;0.10;0.10;;;;;;;21.63;45.22;100970.38;5119394;27;20146;-45
2022/06/07 07:44:17;;;;;;;0.10;0.10;;;;;;;21.62;45.19;100977.03;5099551;28;20126;-44
2022/06/07 07:46:44;;;;;;;0.10;0.10;;;;;;;21.62;45.33;100966.78;5121842;28;20146;-45
2022/06/07 07:49:12;;;;;;;0.10;0.10;;;;;;;21.62;45.22;100964.00;5122762;28;20396;-44
2022/06/07 07:51:39;;;;;;;0.10;0.10;;;;;;;21.61;45.21;100967.09;5122332;27;20122;-45
2022/06/07 07:54:09;;;;;;;0.10;0.10;;;;;;;21.62;45.32;100963.19;5119470;27;20853;-44
2022/06/07 07:56:36;;;;;;;0.10;0.10;;;;;;;21.61;45.18;100959.59;5122303;28;20492;-44
2022/06/07 07:59:03;;;;;;;0.10;0.10;;;;;;;21.60;45.27;100965.44;5105291;28;20588;-44
2022/06/07 08:01:29;;;;;;;0.10;0.10;;;;;;;21.61;45.26;100973.44;5123257;27;20169;-44
2022/06/07 08:03:57;;;;;;;0.10;0.10;;;;;;;21.61;45.36;100967.91;5121176;27;20160;-44
2022/06/07 08:06:25;;;;;;;0.10;0.10;;;;;;;21.60;45.17;100977.34;5087109;27;20510;-44
2022/06/07 08:08:53;;;;;;;0.20;0.20;;;;;;;21.60;45.25;100973.75;5120869;27;20192;-44
2022/06/07 08:11:21;;;;;;;0.10;0.10;;;;;;;21.59;45.30;100972.94;5124303;28;20078;-44
2022/06/07 08:13:47;;;;;;;0.10;0.10;;;;;;;21.59;45.41;100969.31;5103534;28;20470;-44
2022/06/07 08:16:14;;;;;;;0.10;0.10;;;;;;;21.60;45.26;100973.75;5123176;27;20051;-43
2022/06/07 08:18:41;;;;;;;0.10;0.10;;;;;;;21.58;45.18;100974.03;5117621;28;20068;-42
2022/06/07 08:21:11;;;;;;;0.10;0.10;;;;;;;21.57;45.28;100966.84;5118118;28;20123;-44
2022/06/07 08:23:37;;;;;;;0.10;0.10;;;;;;;21.57;45.40;100966.03;5120869;27;20066;-44
2022/06/07 08:26:04;;;;;;;0.10;0.10;;;;;;;21.56;45.39;100962.44;5120421;27;20126;-44
2022/06/07 08:28:31;;;;;;;0.10;0.10;;;;;;;21.57;45.22;100960.47;5118800;27;20048;-44
2022/06/07 08:30:58;;;;;;;0.10;0.10;;;;;;;21.56;45.26;100961.59;5116842;27;20125;-44
2022/06/07 08:39:00;;;;;;;0.10;0.10;;;;;;;21.55;45.29;100955.25;5103759;27;20532;-44
2022/06/07 08:41:30;;;;;;;0.10;0.10;;;;;;;21.54;45.35;100962.72;5094228;27;20157;-44
2022/06/07 08:44:05;;;;;;;0.10;0.10;;;;;;;21.55;45.34;100955.25;5116577;27;20051;-43
2022/06/07 08:46:33;;;;;;;0.10;0.10;;;;;;;21.53;45.41;100961.06;5116897;27;20468;-44
2022/06/07 08:49:00;;;;;;;0.10;0.10;;;;;;;21.54;45.35;100961.88;5109318;27;20059;-43
2022/06/07 08:51:29;;;;;;;0.10;0.10;;;;;;;21.54;45.44;100964.66;5113107;27;20488;-44
2022/06/07 08:53:59;;;;;;;0.10;0.10;;;;;;;21.52;45.33;100956.66;5121142;27;20097;-44
2022/06/07 08:56:27;;;;;;;0.10;0.10;;;;;;;21.52;45.28;100959.41;5114937;27;20146;-44
2022/06/07 08:58:54;;;;;;;0.10;0.10;;;;;;;21.52;45.28;100962.19;5121197;28;20100;-45
2022/06/07 09:01:47;;;;;;;0.10;0.10;;;;;;;21.54;45.48;100959.09;5124513;27;20701;-43
2022/06/07 09:04:30;;;;;;;0.10;0.10;;;;;;;21.53;45.43;100951.94;5106292;27;20446;-45
2022/06/07 09:07:00;;;;;;;0.10;0.10;;;;;;;21.50;45.29;100950.59;5120162;27;20039;-43
2022/06/07 09:12:09;;;;;;;0.10;0.10;;;;;;;21.51;45.37;100951.41;5084405;28;20039;-44
2022/06/07 09:12:20;;;;;;;0.10;0.10;;;;;;;21.52;45.33;100950.28;5107306;28;20063;-44
2022/06/07 09:14:52;;;;;;;0.10;0.10;;;;;;;21.50;45.46;100942.28;5119902;27;20175;-44
2022/06/07 09:17:33;;;;;;;0.10;0.10;;;;;;;21.51;45.38;100948.63;5118507;28;20070;-43
2022/06/07 09:19:59;;;;;;;0.10;0.10;;;;;;;21.50;45.27;100939.50;5118276;28;20086;-44
2022/06/07 09:22:29;;;;;;;0.10;0.10;;;;;;;21.49;45.38;100937.00;5121663;28;20478;-44
2022/06/07 09:25:03;;;;;;;0.10;0.10;;;;;;;21.50;45.35;100935.88;5122131;28;20131;-44
2022/06/07 09:27:32;;;;;;;0.10;0.10;;;;;;;21.50;45.30;100938.66;5117249;28;20070;-44
2022/06/07 09:30:02;;;;;;;0.10;0.10;;;;;;;21.49;45.34;100935.06;5121950;28;20067;-44
2022/06/07 09:32:33;;;;;;;0.10;0.10;;;;;;;21.48;45.33;100924.28;5120558;28;20058;-44
2022/06/07 09:35:02;;;;;;;0.10;0.10;;;;;;;21.50;45.47;100922.03;5100400;28;20135;-44
2022/06/07 09:37:31;;;;;;;0.10;0.10;;;;;;;21.48;45.31;100927.88;5122007;28;20176;-43
2022/06/07 09:40:22;;;;;;;0.10;0.10;;;;;;;21.50;45.41;100916.50;5117799;28;20071;-44
2022/06/07 09:42:54;;;;;;;0.10;0.10;;;;;;;21.49;45.35;100914.84;5120778;27;20088;-44
2022/06/07 09:45:25;;;;;;;0.10;0.10;;;;;;;21.48;45.41;100924.28;5122587;27;20079;-44
2022/06/07 09:47:51;;;;;;;0.10;0.10;;;;;;;21.48;45.42;100919.56;5099798;28;20078;-44
2022/06/07 09:53:14;;;;;;;0.10;0.10;;;;;;;21.47;45.35;100922.66;5156357;27;20197;-33
2022/06/07 09:55:49;;;;;;;0.10;0.10;;;;;;;21.47;45.37;100912.38;5157452;27;20179;-32
2022/06/07 09:58:55;;;;;;;0.10;0.10;;;;;;;21.47;45.56;100917.09;5155578;27;20201;-32
2022/06/07 10:01:30;;;;;;;0.10;0.10;;;;;;;21.46;45.42;100915.44;5139256;27;20078;-33
2022/06/07 10:04:12;;;;;;;0.10;0.10;;;;;;;21.45;45.49;100914.59;5134178;27;20046;-32
2022/06/07 10:06:43;;;;;;;0.10;0.10;;;;;;;21.45;45.37;100920.16;5154627;27;20095;-32
2022/06/07 10:12:12;;;;;;;0.10;0.10;;;;;;;21.45;45.36;100924.88;5152533;27;20636;-33
2022/06/07 10:14:49;;;;;;;0.10;0.10;;;;;;;21.45;45.37;100917.38;5143434;27;20094;-33
2022/06/07 10:17:41;;;;;;;0.10;0.10;;;;;;;21.45;45.46;100911.03;5137903;27;20462;-32
2022/06/07 10:20:29;;;;;;;0.10;0.10;;;;;;;21.44;45.39;100920.47;5125014;27;20078;-32
2022/06/07 10:23:34;;;;;;;0.10;0.10;;;;;;;21.44;45.66;100920.47;5115724;27;20469;-32
2022/06/07 10:26:10;;;;;;;0.10;0.10;;;;;;;21.44;45.62;100912.16;5123483;27;20071;-32
2022/06/07 10:28:58;;;;;;;0.10;0.10;;;;;;;21.43;45.40;100913.28;5141207;27;20077;-33
2022/06/07 10:31:47;;;;;;;0.10;0.10;;;;;;;21.44;45.48;100906.59;5143354;27;20449;-33
2022/06/07 10:34:36;;;;;;;0.10;0.10;;;;;;;21.43;45.42;100900.25;5120144;27;20066;-32
2022/06/07 10:37:28;;;;;;;0.10;0.10;;;;;;;21.42;45.47;100900.56;5125890;27;20130;-32
2022/06/07 10:40:12;;;;;;;0.10;0.10;;;;;;;21.43;45.50;100893.88;5122509;27;20086;-33
2022/06/07 10:42:45;;;;;;;0.10;0.10;;;;;;;21.42;45.58;100898.59;5139523;27;20668;-32
2022/06/07 10:45:19;;;;;;;0.10;0.10;;;;;;;21.41;45.67;100894.16;5135360;27;20126;-32
2022/06/07 10:47:58;;;;;;;0.10;0.10;;;;;;;21.41;45.59;100893.34;5123823;27;20138;-32
2022/06/07 10:50:31;;;;;;;0.10;0.10;;;;;;;21.15;46.88;100899.16;5135324;27;20142;-33
2022/06/07 10:53:19;;;;;;;0.10;0.10;;;;;;;21.38;46.55;100900.31;5132325;27;20149;-32
2022/06/07 10:55:53;;;;;;;0.10;0.10;;;;;;;21.45;46.34;100894.38;5130649;27;20134;-32
2022/06/07 10:58:28;;;;;;;0.10;0.10;;;;;;;21.46;46.47;100898.81;5129009;27;20142;-35
2022/06/07 11:00:59;;;;;;;0.10;0.10;;;;;;;21.45;45.92;100897.97;5136248;27;20058;-35
2022/06/07 11:03:32;;;;;;;0.10;0.10;;;;;;;21.47;46.23;100892.16;5117840;27;20074;-35
2022/06/07 11:09:34;;;;;;;0.10;0.10;;;;;;;21.47;46.04;100893.00;5119373;27;20133;-35
2022/06/07 11:11:57;;;;;;;0.10;0.10;;;;;;;21.50;46.02;100895.19;5112146;27;20642;-35
2022/06/07 11:14:38;;;;;;;0.10;0.10;;;;;;;21.49;45.89;100890.72;5138231;27;20101;-35
2022/06/07 11:17:25;;;;;;;0.10;0.10;;;;;;;21.51;45.88;100893.22;5133612;27;20143;-35
2022/06/07 11:19:52;;;;;;;0.10;0.10;;;;;;;21.52;45.70;100897.63;5120887;27;20537;-35
2022/06/07 11:22:20;;;;;;;0.10;0.10;;;;;;;21.54;45.77;100899.00;5126712;27;20457;-35
2022/06/07 11:25:19;;;;;;;0.10;0.10;;;;;;;21.54;45.88;100890.69;5118909;28;20146;-35
2022/06/07 11:28:07;;;;;;;0.10;0.10;;;;;;;21.56;45.76;100886.78;5102157;28;20179;-35
2022/06/07 11:33:49;;;;;;;0.10;0.10;;;;;;;21.57;45.62;100886.47;5153357;27;20222;-33
2022/06/07 11:36:30;;;;;;;0.10;0.10;;;;;;;21.58;45.66;100888.13;5127143;27;20082;-33
2022/06/07 11:41:41;;;;;;;0.10;0.10;;;;;;;21.59;45.43;100878.72;5172042;27;20212;-32
2022/06/07 11:52:22;;;;;;;0.10;0.10;;;;;;;21.63;45.57;100882.53;5151462;27;20546;-36
2022/06/07 11:54:53;;;;;;;0.10;0.10;;;;;;;21.65;45.38;100885.00;5119953;27;20510;-36
2022/06/07 11:57:58;;;;;;;0.10;0.10;;;;;;;21.65;45.41;100882.22;5108115;27;20039;-35
2022/06/07 12:00:39;;;;;;;0.10;0.10;;;;;;;21.65;45.43;100885.81;5137656;27;20087;-35
2022/06/07 12:03:10;;;;;;;0.10;0.10;;;;;;;21.66;45.40;100884.69;5142280;27;20043;-35
2022/06/07 12:05:40;;;;;;;0.10;0.10;;;;;;;21.66;45.50;100890.22;5132400;27;20776;-34
2022/06/07 12:08:16;;;;;;;0.10;0.10;;;;;;;21.66;45.43;100889.41;5125030;27;20070;-33
2022/06/07 12:11:01;;;;;;;0.10;0.10;;;;;;;21.66;45.33;100889.41;5140025;27;20122;-33
2022/06/07 12:13:52;;;;;;;0.10;0.10;;;;;;;21.66;45.31;100890.22;5140559;27;20047;-33
2022/06/07 12:16:42;;;;;;;0.10;0.10;;;;;;;21.66;45.48;100900.50;5135659;27;20043;-33